Time;durP1;ratioP1;P1;durP2;ratioP2;P2;SDS_P1;SDS_P2;PMS_P1;PMS_P2;Temp;Humidity;BMP_temperature;BMP_pressure;BME280_temperature;BME280_humidity;BME280_pressure;Samples;Min_cycle;Max_cycle;Signal;HPM_P1;HPM_P2
2022/12/13 00:01:35;;;;;;;81.07;33.37;;;-7.40;23.40;;;;;;5031037;28;20268;-68
2022/12/13 00:04:03;;;;;;;82.60;35.13;;;-7.40;24.10;;;;;;5032481;28;20172;-69
2022/12/13 00:06:29;;;;;;;82.68;41.22;;;-7.50;24.50;;;;;;5032656;28;20226;-69
2022/12/13 00:08:56;;;;;;;81.82;35.58;;;-7.40;23.80;;;;;;5032508;28;20211;-68
2022/12/13 00:11:21;;;;;;;90.03;42.75;;;-7.40;24.10;;;;;;5031192;28;20186;-69
2022/12/13 00:13:47;;;;;;;81.43;40.53;;;-7.40;23.50;;;;;;5030956;28;20188;-69
2022/12/13 00:16:15;;;;;;;82.63;34.80;;;-7.40;24.50;;;;;;5032355;28;20177;-68
2022/12/13 00:18:41;;;;;;;91.18;50.28;;;-7.40;24.50;;;;;;5032167;28;20195;-68
2022/12/13 00:21:10;;;;;;;88.55;37.75;;;-7.40;24.20;;;;;;5032184;28;20169;-69
2022/12/13 00:23:36;;;;;;;89.55;49.95;;;-7.50;24.50;;;;;;5031985;28;20220;-69
2022/12/13 00:26:06;;;;;;;87.37;42.63;;;-7.50;24.40;;;;;;5032157;28;20571;-69
2022/12/13 00:28:31;;;;;;;88.60;41.78;;;-7.50;24.80;;;;;;5032221;28;20669;-69
2022/12/13 00:30:58;;;;;;;109.13;62.03;;;-7.40;25.10;;;;;;5032514;28;20265;-69
2022/12/13 00:33:24;;;;;;;94.15;43.17;;;-7.40;24.50;;;;;;5032032;28;20172;-69
2022/12/13 00:35:50;;;;;;;88.63;50.27;;;-7.50;24.90;;;;;;5031076;28;20181;-69
2022/12/13 00:38:15;;;;;;;98.27;66.23;;;-7.50;24.90;;;;;;5032047;28;20522;-69
2022/12/13 00:40:41;;;;;;;79.07;33.23;;;-7.60;24.80;;;;;;5032288;28;20718;-69
2022/12/13 00:43:06;;;;;;;84.10;43.10;;;-7.60;26.00;;;;;;5031734;28;20177;-69
2022/12/13 00:45:32;;;;;;;88.73;48.60;;;-7.50;25.00;;;;;;5033054;28;20198;-69
2022/12/13 00:47:58;;;;;;;90.20;54.20;;;-7.50;25.20;;;;;;5032104;28;20170;-70
2022/12/13 00:50:24;;;;;;;89.33;40.50;;;-7.60;25.20;;;;;;5032998;28;20181;-69
2022/12/13 00:52:49;;;;;;;95.83;70.87;;;-7.60;26.30;;;;;;5031538;28;20251;-69
2022/12/13 00:55:15;;;;;;;85.83;42.17;;;-7.50;25.80;;;;;;5031685;28;20941;-68
2022/12/13 00:57:40;;;;;;;92.30;45.30;;;-7.50;26.20;;;;;;5031654;28;20264;-68
2022/12/13 01:00:07;;;;;;;81.70;32.93;;;-7.60;25.90;;;;;;5030251;28;20213;-69
2022/12/13 01:02:32;;;;;;;88.65;48.45;;;-7.50;26.30;;;;;;5030079;28;20189;-68
2022/12/13 01:04:58;;;;;;;91.00;54.80;;;-7.50;25.30;;;;;;5031767;28;20170;-68
2022/12/13 01:07:24;;;;;;;100.97;55.37;;;-7.50;25.70;;;;;;5031720;28;20201;-69
2022/12/13 01:09:49;;;;;;;90.90;46.80;;;-7.60;25.60;;;;;;5031711;28;20232;-70
2022/12/13 01:12:16;;;;;;;106.23;38.47;;;-7.60;25.90;;;;;;5031646;28;20417;-69
2022/12/13 01:14:41;;;;;;;92.22;42.00;;;-7.60;26.70;;;;;;5031756;28;20265;-69
2022/12/13 01:17:07;;;;;;;90.43;40.90;;;-7.60;26.10;;;;;;5031735;28;20294;-70
2022/12/13 01:19:33;;;;;;;91.00;41.27;;;-7.70;26.30;;;;;;5031661;28;20893;-70
2022/12/13 01:22:01;;;;;;;101.27;71.77;;;-7.60;26.60;;;;;;5031476;28;20225;-70
2022/12/13 01:24:28;;;;;;;98.78;46.50;;;-7.70;26.30;;;;;;5031637;28;20195;-69
2022/12/13 01:26:54;;;;;;;88.35;35.97;;;-7.70;27.30;;;;;;5033738;28;20189;-70
2022/12/13 01:29:20;;;;;;;97.87;45.97;;;-7.50;27.30;;;;;;5035464;28;20218;-70
2022/12/13 01:31:47;;;;;;;92.07;51.45;;;-7.60;26.20;;;;;;5035043;28;20216;-69
2022/12/13 01:34:15;;;;;;;92.53;53.55;;;-7.60;26.60;;;;;;5035618;28;20178;-70
2022/12/13 01:36:42;;;;;;;97.65;55.13;;;-7.60;27.20;;;;;;5035430;28;20179;-70
2022/12/13 01:39:10;;;;;;;89.13;42.20;;;-7.50;26.60;;;;;;5034096;28;20702;-70
2022/12/13 01:41:36;;;;;;;82.10;38.25;;;-7.60;26.00;;;;;;5035128;28;20176;-70
2022/12/13 01:44:04;;;;;;;93.87;40.80;;;-7.70;26.80;;;;;;5035310;28;20391;-70
2022/12/13 01:46:32;;;;;;;100.60;60.70;;;-7.60;26.70;;;;;;5034029;28;21359;-70
2022/12/13 01:49:18;;;;;;;87.22;36.03;;;-7.60;25.90;;;;;;5033455;28;20828;-70
2022/12/13 01:51:47;;;;;;;91.15;43.60;;;-7.70;26.30;;;;;;5034608;28;20621;-70
2022/12/13 01:54:17;;;;;;;90.45;44.13;;;-7.70;25.90;;;;;;5034862;28;20195;-70
2022/12/13 01:56:47;;;;;;;94.82;45.40;;;-7.80;26.60;;;;;;5033613;28;20578;-70
2022/12/13 01:59:16;;;;;;;86.07;45.60;;;-7.80;27.30;;;;;;5034829;28;20216;-70
2022/12/13 02:01:44;;;;;;;91.45;47.00;;;-7.70;27.10;;;;;;5034491;28;20176;-70
2022/12/13 02:04:10;;;;;;;93.55;57.90;;;-7.70;26.70;;;;;;5034644;28;20544;-70
2022/12/13 02:06:40;;;;;;;107.10;79.25;;;-7.80;27.60;;;;;;5033457;28;20215;-70
2022/12/13 02:09:07;;;;;;;99.65;62.08;;;-7.70;26.80;;;;;;5034556;28;20233;-70
2022/12/13 02:11:35;;;;;;;84.57;46.55;;;-7.70;26.70;;;;;;5034334;28;20238;-70
2022/12/13 02:14:01;;;;;;;93.35;44.90;;;-7.90;26.90;;;;;;5034565;28;20179;-69
2022/12/13 02:16:54;;;;;;;82.00;37.50;;;-7.90;26.70;;;;;;5034404;28;20179;-69
2022/12/13 02:19:48;;;;;;;97.30;45.72;;;-7.80;28.10;;;;;;5034267;28;20196;-69
2022/12/13 02:22:26;;;;;;;86.25;38.10;;;-7.90;26.30;;;;;;5031843;28;20193;-71
2022/12/13 02:25:07;;;;;;;90.18;47.35;;;-7.80;26.60;;;;;;5034276;28;20178;-70
2022/12/13 02:27:49;;;;;;;94.00;44.63;;;-7.90;26.90;;;;;;5033363;28;20657;-69
2022/12/13 02:30:32;;;;;;;98.07;47.72;;;-7.80;26.70;;;;;;5034170;28;20282;-69
2022/12/13 02:33:21;;;;;;;85.00;38.50;;;-7.80;26.30;;;;;;5033858;28;20180;-69
2022/12/13 02:35:59;;;;;;;79.82;32.78;;;-7.80;26.70;;;;;;5032783;28;20192;-69
2022/12/13 02:38:43;;;;;;;94.90;51.50;;;-7.80;26.90;;;;;;5032648;28;20680;-69
2022/12/13 02:41:43;;;;;;;95.93;34.60;;;-7.80;25.70;;;;;;5032618;28;20188;-69
2022/12/13 02:44:21;;;;;;;87.03;41.47;;;-7.90;25.90;;;;;;5032516;28;20215;-68
2022/12/13 02:47:05;;;;;;;83.50;32.58;;;-8.00;26.10;;;;;;5033756;28;20594;-69
2022/12/13 02:49:35;;;;;;;94.32;53.83;;;-8.00;27.10;;;;;;5032504;28;20201;-68
2022/12/13 02:52:03;;;;;;;111.22;88.43;;;-8.00;25.60;;;;;;5033473;28;20178;-69
2022/12/13 02:54:29;;;;;;;89.05;43.65;;;-8.00;25.90;;;;;;5033759;28;20209;-68
2022/12/13 02:56:57;;;;;;;82.90;39.13;;;-8.00;25.70;;;;;;5033648;28;20272;-68
2022/12/13 02:59:27;;;;;;;85.43;44.28;;;-8.10;26.00;;;;;;5033397;28;20199;-68
2022/12/13 03:02:14;;;;;;;89.47;45.17;;;-8.20;25.40;;;;;;5033421;28;20185;-68
2022/12/13 03:07:47;;;;;;;90.97;41.92;;;-8.30;25.50;;;;;;5033637;28;20298;-69
2022/12/13 03:10:28;;;;;;;88.88;34.58;;;-8.30;26.00;;;;;;5032237;28;20183;-68
2022/12/13 03:15:50;;;;;;;81.22;36.85;;;-8.30;26.30;;;;;;5033382;28;20184;-68
2022/12/13 03:18:19;;;;;;;104.57;59.53;;;-8.30;26.40;;;;;;5033327;28;20215;-68
2022/12/13 03:20:57;;;;;;;96.68;45.97;;;-8.30;25.90;;;;;;5033372;28;20579;-69
2022/12/13 03:23:24;;;;;;;89.65;36.70;;;-8.30;26.30;;;;;;5033041;28;20637;-68
2022/12/13 03:25:55;;;;;;;95.65;56.72;;;-8.30;26.50;;;;;;5031738;28;20183;-68
2022/12/13 03:28:22;;;;;;;93.75;42.35;;;-8.40;25.80;;;;;;5032927;28;20237;-68
2022/12/13 03:30:48;;;;;;;85.45;36.58;;;-8.40;25.90;;;;;;5032722;28;20188;-67
2022/12/13 03:33:13;;;;;;;84.90;32.17;;;-8.40;26.70;;;;;;5033051;28;20370;-68
2022/12/13 03:35:41;;;;;;;87.40;43.27;;;-8.40;26.70;;;;;;5033082;28;20180;-68
2022/12/13 03:38:07;;;;;;;88.82;35.35;;;-8.50;25.90;;;;;;5032899;28;20262;-69
2022/12/13 03:40:34;;;;;;;82.97;37.58;;;-8.40;26.70;;;;;;5032971;28;20227;-68
2022/12/13 03:43:00;;;;;;;78.57;37.78;;;-8.40;25.60;;;;;;5031454;28;20176;-68
2022/12/13 03:45:26;;;;;;;90.78;43.33;;;-8.50;26.00;;;;;;5032779;28;20181;-68
2022/12/13 03:47:51;;;;;;;81.10;31.63;;;-8.60;25.70;;;;;;5033224;28;20300;-68
2022/12/13 03:50:17;;;;;;;82.83;35.50;;;-8.40;26.60;;;;;;5032159;28;20249;-71
2022/12/13 03:52:43;;;;;;;90.17;43.33;;;-8.40;25.60;;;;;;5031273;28;20188;-70
2022/12/13 03:55:09;;;;;;;82.40;31.60;;;-8.40;25.20;;;;;;5032680;28;20181;-70
2022/12/13 03:57:35;;;;;;;90.25;39.47;;;-8.50;25.50;;;;;;5032610;28;20204;-69
2022/12/13 04:00:01;;;;;;;81.73;30.97;;;-8.50;25.40;;;;;;5031643;28;20254;-70
2022/12/13 04:02:26;;;;;;;83.30;44.75;;;-8.60;25.40;;;;;;5032322;28;20414;-69
2022/12/13 04:04:52;;;;;;;84.17;48.13;;;-8.50;25.10;;;;;;5032573;28;20216;-69
2022/12/13 04:07:18;;;;;;;83.17;36.73;;;-8.60;25.30;;;;;;5032536;28;20207;-69
2022/12/13 04:09:43;;;;;;;86.33;37.20;;;-8.50;25.80;;;;;;5031070;28;20203;-69
2022/12/13 04:14:53;;;;;;;84.32;43.60;;;-8.50;25.80;;;;;;5032578;28;20180;-69
2022/12/13 04:17:18;;;;;;;83.57;41.23;;;-8.60;25.10;;;;;;5032447;28;20183;-69
2022/12/13 04:19:44;;;;;;;98.40;68.10;;;-8.70;25.60;;;;;;5032245;28;20214;-69
2022/12/13 04:22:09;;;;;;;87.80;42.40;;;-8.70;25.20;;;;;;5032149;28;20361;-69
2022/12/13 04:24:36;;;;;;;86.17;35.27;;;-8.80;25.60;;;;;;5030964;28;20193;-69
2022/12/13 04:27:02;;;;;;;76.45;32.53;;;-8.80;25.80;;;;;;5032472;28;20171;-69
2022/12/13 04:29:28;;;;;;;82.18;30.55;;;-8.80;26.40;;;;;;5030568;28;20222;-69
2022/12/13 04:31:54;;;;;;;92.35;50.60;;;-8.70;26.50;;;;;;5031892;28;20687;-68
2022/12/13 04:34:19;;;;;;;92.10;52.40;;;-8.70;25.10;;;;;;5032277;28;20184;-68
2022/12/13 04:36:45;;;;;;;80.83;34.67;;;-8.80;25.50;;;;;;5030938;28;20195;-68
2022/12/13 04:39:10;;;;;;;86.37;43.77;;;-8.80;25.80;;;;;;5032304;28;20234;-68
2022/12/13 04:41:37;;;;;;;89.07;38.93;;;-8.80;25.30;;;;;;5031752;28;20268;-67
2022/12/13 04:44:05;;;;;;;84.57;44.15;;;-8.80;25.60;;;;;;5030730;28;20176;-68
2022/12/13 04:46:31;;;;;;;85.13;40.53;;;-8.80;25.40;;;;;;5032087;28;20175;-68
2022/12/13 04:48:56;;;;;;;100.60;69.83;;;-8.90;25.50;;;;;;5032226;28;20249;-68
2022/12/13 04:51:22;;;;;;;76.73;32.27;;;-8.80;25.60;;;;;;5031859;28;20414;-68
2022/12/13 04:53:48;;;;;;;80.17;34.73;;;-8.90;26.10;;;;;;5031547;28;20237;-69
2022/12/13 04:56:14;;;;;;;85.65;38.83;;;-8.90;26.50;;;;;;5031954;28;20597;-69
2022/12/13 04:58:39;;;;;;;85.10;38.33;;;-8.90;25.80;;;;;;5032038;28;20215;-68
2022/12/13 05:01:07;;;;;;;89.67;34.53;;;-8.90;25.80;;;;;;5032733;28;20182;-69
2022/12/13 05:03:33;;;;;;;83.53;42.03;;;-9.00;26.20;;;;;;5034385;28;20183;-68
2022/12/13 05:05:58;;;;;;;83.90;37.17;;;-8.80;26.20;;;;;;5036004;28;20178;-68
2022/12/13 05:08:24;;;;;;;85.80;41.83;;;-8.80;25.90;;;;;;5034411;28;20543;-68
2022/12/13 05:10:49;;;;;;;87.00;33.70;;;-8.90;25.50;;;;;;5035797;28;20175;-69
2022/12/13 05:13:15;;;;;;;84.37;34.63;;;-9.00;26.40;;;;;;5035463;28;20183;-68
2022/12/13 05:15:40;;;;;;;88.90;37.50;;;-8.80;26.20;;;;;;5035779;28;20206;-69
2022/12/13 05:18:06;;;;;;;86.83;39.97;;;-8.80;25.90;;;;;;5035577;28;20269;-68
2022/12/13 05:20:34;;;;;;;93.53;38.92;;;-8.90;25.50;;;;;;5035573;28;20202;-68
2022/12/13 05:23:00;;;;;;;89.00;36.80;;;-8.90;25.70;;;;;;5034077;28;20187;-68
2022/12/13 05:25:26;;;;;;;80.97;32.43;;;-8.90;25.90;;;;;;5035562;28;20176;-69
2022/12/13 05:27:52;;;;;;;86.03;41.10;;;-8.90;26.40;;;;;;5035354;28;20645;-69
2022/12/13 05:30:18;;;;;;;81.40;32.83;;;-9.00;25.40;;;;;;5077765;22;20682;-69
2022/12/13 05:32:44;;;;;;;92.90;36.50;;;-8.90;26.50;;;;;;5053847;28;20591;-69
2022/12/13 05:35:14;;;;;;;92.83;33.00;;;-8.90;25.60;;;;;;5053976;28;20170;-69
2022/12/13 05:37:40;;;;;;;89.72;42.33;;;-8.90;26.00;;;;;;5053863;28;20178;-69
2022/12/13 05:40:07;;;;;;;85.27;37.10;;;-8.90;25.10;;;;;;5055027;28;20215;-71
2022/12/13 05:42:32;;;;;;;87.88;41.83;;;-9.00;24.70;;;;;;5055001;28;20266;-69
2022/12/13 05:44:58;;;;;;;84.57;42.87;;;-9.10;25.20;;;;;;5055088;28;20641;-68
2022/12/13 05:47:23;;;;;;;83.53;38.37;;;-9.10;25.60;;;;;;5055019;28;20224;-69
2022/12/13 05:49:50;;;;;;;84.53;46.83;;;-9.00;26.40;;;;;;5054930;28;20207;-69
2022/12/13 05:52:18;;;;;;;89.60;37.90;;;-8.90;25.30;;;;;;5054716;28;20228;-69
2022/12/13 05:54:43;;;;;;;86.43;43.53;;;-9.00;25.60;;;;;;5054660;28;20186;-69
2022/12/13 05:57:09;;;;;;;76.90;31.07;;;-8.90;25.60;;;;;;5053107;28;20179;-69
2022/12/13 05:59:34;;;;;;;80.93;34.13;;;-8.90;25.80;;;;;;5054558;28;20260;-68
2022/12/13 06:02:00;;;;;;;88.20;38.57;;;-9.00;25.60;;;;;;5053165;28;20172;-70
2022/12/13 06:04:25;;;;;;;98.53;59.77;;;-8.90;25.20;;;;;;5054705;28;20176;-69
2022/12/13 06:06:51;;;;;;;86.80;39.73;;;-8.90;24.90;;;;;;5054575;28;20669;-69
2022/12/13 06:09:18;;;;;;;84.10;42.63;;;-8.90;25.70;;;;;;5054527;28;20760;-70
2022/12/13 06:11:44;;;;;;;86.80;33.97;;;-9.00;25.00;;;;;;5053980;28;20190;-69
2022/12/13 06:14:09;;;;;;;82.03;36.33;;;-9.00;25.70;;;;;;5054419;28;20175;-69
2022/12/13 06:16:35;;;;;;;86.30;37.20;;;-9.00;24.80;;;;;;5054559;28;20671;-69
2022/12/13 06:19:00;;;;;;;86.43;34.80;;;-9.10;24.90;;;;;;5054412;28;20209;-70
2022/12/13 06:21:26;;;;;;;80.90;33.97;;;-8.90;25.40;;;;;;5052885;28;20174;-69
2022/12/13 06:23:52;;;;;;;87.60;37.27;;;-9.00;24.60;;;;;;5054251;28;20166;-70
2022/12/13 06:26:17;;;;;;;81.80;41.90;;;-9.00;24.40;;;;;;5054250;28;20587;-70
2022/12/13 06:28:43;;;;;;;78.97;35.30;;;-9.10;24.10;;;;;;5054054;28;20207;-70
2022/12/13 06:31:09;;;;;;;81.50;31.27;;;-9.10;25.90;;;;;;5053952;28;20174;-71
2022/12/13 06:33:35;;;;;;;84.05;34.33;;;-9.10;24.90;;;;;;5054472;28;20172;-70
2022/12/13 06:36:02;;;;;;;83.07;35.38;;;-9.00;25.00;;;;;;5052730;28;20178;-71
2022/12/13 06:38:28;;;;;;;81.32;31.50;;;-9.00;24.60;;;;;;5053171;28;20194;-69
2022/12/13 06:40:53;;;;;;;88.73;38.60;;;-8.90;24.80;;;;;;5052697;28;20264;-71
2022/12/13 06:43:19;;;;;;;80.97;31.37;;;-9.00;23.90;;;;;;5053764;28;20171;-72
2022/12/13 06:45:45;;;;;;;81.97;35.80;;;-9.00;25.00;;;;;;5053877;28;20175;-69
2022/12/13 06:48:11;;;;;;;89.83;42.07;;;-9.00;24.40;;;;;;5053791;28;20194;-69
2022/12/13 06:50:36;;;;;;;81.43;33.60;;;-8.90;24.50;;;;;;5052461;28;20445;-70
2022/12/13 06:53:02;;;;;;;79.30;32.03;;;-8.90;24.00;;;;;;5053574;28;20182;-69
2022/12/13 06:55:28;;;;;;;83.63;38.93;;;-8.90;24.50;;;;;;5053672;28;20175;-69
2022/12/13 06:57:56;;;;;;;85.17;39.97;;;-9.00;24.50;;;;;;5053764;28;20934;-70
2022/12/13 07:00:22;;;;;;;83.40;35.78;;;-9.10;24.00;;;;;;5053507;28;20985;-70
2022/12/13 07:02:53;;;;;;;89.17;36.37;;;-9.00;24.90;;;;;;5053244;28;20225;-70
2022/12/13 07:05:19;;;;;;;92.82;45.85;;;-9.00;24.30;;;;;;5055833;28;20639;-71
2022/12/13 07:07:45;;;;;;;102.07;77.27;;;-9.10;24.10;;;;;;5054347;28;20171;-74
2022/12/13 07:10:10;;;;;;;89.07;37.60;;;-9.10;24.40;;;;;;5055788;28;20194;-71
2022/12/13 07:12:36;;;;;;;84.47;45.80;;;-9.10;24.90;;;;;;5054712;28;20228;-71
2022/12/13 07:15:01;;;;;;;99.63;38.33;;;-9.10;25.00;;;;;;5055223;28;20235;-71
2022/12/13 07:17:27;;;;;;;98.33;37.93;;;-9.10;24.60;;;;;;5054853;28;20605;-70
2022/12/13 07:19:52;;;;;;;92.60;36.37;;;-9.10;24.50;;;;;;5054500;28;20202;-70
2022/12/13 07:22:18;;;;;;;88.37;39.77;;;-9.10;25.00;;;;;;5054605;28;20193;-71
2022/12/13 07:24:44;;;;;;;82.80;33.43;;;-9.10;24.60;;;;;;5053788;28;20171;-71
2022/12/13 07:27:09;;;;;;;86.07;38.17;;;-8.90;24.70;;;;;;5053081;28;20171;-71
2022/12/13 07:29:35;;;;;;;82.87;34.87;;;-8.90;24.80;;;;;;5052820;28;20280;-70
2022/12/13 07:32:00;;;;;;;85.97;30.60;;;-8.90;24.80;;;;;;5052761;28;20178;-70
2022/12/13 07:34:26;;;;;;;89.97;43.50;;;-8.80;24.80;;;;;;5052363;28;20220;-70
2022/12/13 07:36:51;;;;;;;85.53;37.00;;;-8.70;23.70;;;;;;5051026;28;20183;-70
2022/12/13 07:39:17;;;;;;;87.60;37.73;;;-8.70;24.40;;;;;;5052758;28;20234;-70
2022/12/13 07:41:42;;;;;;;88.57;33.93;;;-8.60;24.20;;;;;;5045805;28;20182;-70
2022/12/13 07:44:08;;;;;;;87.50;42.47;;;-8.60;25.20;;;;;;5032554;28;20219;-70
2022/12/13 07:46:33;;;;;;;91.90;42.87;;;-8.60;23.70;;;;;;5032822;28;20514;-76
2022/12/13 07:49:03;;;;;;;85.87;44.87;;;-8.60;23.90;;;;;;5037780;28;20261;-70
2022/12/13 07:51:29;;;;;;;93.53;41.40;;;-8.60;24.00;;;;;;5031408;28;20179;-70
2022/12/13 07:53:54;;;;;;;93.17;43.20;;;-8.60;24.20;;;;;;5030920;28;20594;-70
2022/12/13 07:56:20;;;;;;;81.47;38.93;;;-8.50;24.60;;;;;;5041802;28;20191;-70
2022/12/13 07:58:46;;;;;;;87.43;40.93;;;-8.50;24.80;;;;;;5030714;28;20202;-70
2022/12/13 08:01:11;;;;;;;93.00;38.47;;;-8.40;24.00;;;;;;5031989;28;20421;-69
2022/12/13 08:03:37;;;;;;;94.17;52.37;;;-8.30;24.90;;;;;;5032530;28;20263;-70
2022/12/13 08:06:04;;;;;;;93.03;51.90;;;-8.20;24.10;;;;;;5032604;28;20181;-70
2022/12/13 08:08:30;;;;;;;93.43;46.38;;;-8.20;24.10;;;;;;5032274;28;20681;-71
2022/12/13 08:11:00;;;;;;;94.03;47.28;;;-8.10;24.50;;;;;;5032488;28;20219;-70
2022/12/13 08:13:26;;;;;;;91.72;44.85;;;-8.00;24.30;;;;;;5032273;28;20579;-70
2022/12/13 08:16:00;;;;;;;94.00;50.33;;;-7.90;24.00;;;;;;5032270;28;20214;-71
2022/12/13 08:18:29;;;;;;;97.90;45.65;;;-7.90;24.10;;;;;;5032459;28;20192;-70
2022/12/13 08:21:00;;;;;;;104.60;55.00;;;-7.80;23.00;;;;;;5047438;28;20208;-71
2022/12/13 08:23:26;;;;;;;93.38;44.33;;;-7.80;23.60;;;;;;5047286;28;20676;-70
2022/12/13 08:25:53;;;;;;;92.85;44.33;;;-7.70;23.60;;;;;;5032191;28;20726;-70
2022/12/13 08:28:19;;;;;;;96.57;46.45;;;-7.70;23.10;;;;;;5031936;28;20190;-70
2022/12/13 08:30:45;;;;;;;93.57;59.43;;;-7.70;23.50;;;;;;5047526;28;20189;-70
2022/12/13 08:33:10;;;;;;;99.32;43.22;;;-7.60;23.30;;;;;;5031669;28;20810;-70
2022/12/13 08:35:36;;;;;;;97.97;46.93;;;-7.50;22.70;;;;;;5032173;28;20195;-70
2022/12/13 08:38:02;;;;;;;96.43;39.60;;;-7.50;23.00;;;;;;5047271;28;20184;-71
2022/12/13 08:40:27;;;;;;;105.40;55.78;;;-7.40;22.50;;;;;;5031902;28;20216;-71
2022/12/13 08:42:56;;;;;;;98.63;42.30;;;-7.40;22.50;;;;;;5032117;28;20248;-70
2022/12/13 08:45:25;;;;;;;96.78;48.92;;;-7.40;22.90;;;;;;5032823;28;20177;-71
2022/12/13 08:47:51;;;;;;;87.20;41.60;;;-7.20;23.20;;;;;;5031805;28;20193;-70
2022/12/13 08:50:17;;;;;;;94.60;45.53;;;-7.20;23.20;;;;;;5031819;28;20234;-70
2022/12/13 08:52:43;;;;;;;96.20;48.07;;;-7.00;22.40;;;;;;5047459;28;20581;-70
2022/12/13 08:55:13;;;;;;;90.93;41.42;;;-7.00;22.20;;;;;;5031804;28;20205;-70
2022/12/13 08:57:41;;;;;;;86.40;37.78;;;-6.90;22.00;;;;;;5031607;28;20240;-70
2022/12/13 09:00:10;;;;;;;92.03;38.65;;;-7.00;22.10;;;;;;5031614;28;20209;-70
2022/12/13 09:02:36;;;;;;;101.72;39.13;;;-6.90;22.10;;;;;;5031407;28;20186;-70
2022/12/13 09:05:02;;;;;;;87.40;43.00;;;-6.80;21.40;;;;;;5046998;28;20178;-70
2022/12/13 09:07:28;;;;;;;111.82;53.50;;;-6.70;22.10;;;;;;5047727;28;20179;-70
2022/12/13 09:09:53;;;;;;;95.90;43.97;;;-6.60;21.00;;;;;;5031621;28;20202;-70
2022/12/13 09:12:19;;;;;;;120.80;101.47;;;-6.60;21.00;;;;;;5031292;28;20192;-71
2022/12/13 09:14:45;;;;;;;92.13;42.93;;;-6.60;21.00;;;;;;5031856;28;20672;-71
2022/12/13 09:17:11;;;;;;;149.90;123.10;;;-6.60;21.60;;;;;;5031553;28;20220;-71
2022/12/13 09:19:37;;;;;;;88.65;41.78;;;-6.50;21.10;;;;;;5046796;28;20293;-70
2022/12/13 09:22:03;;;;;;;94.50;41.20;;;-6.50;21.60;;;;;;5031141;28;20634;-69
2022/12/13 09:24:28;;;;;;;87.60;42.78;;;-6.40;22.10;;;;;;5031511;28;20182;-71
2022/12/13 09:26:54;;;;;;;92.33;45.67;;;-6.20;22.60;;;;;;5031405;28;20538;-71
2022/12/13 09:29:19;;;;;;;87.70;39.20;;;-6.10;21.30;;;;;;5032314;28;20265;-71
2022/12/13 09:31:45;;;;;;;89.47;38.50;;;-6.00;20.80;;;;;;5032554;28;20182;-71
2022/12/13 09:34:11;;;;;;;89.70;36.53;;;-6.00;20.60;;;;;;5031653;28;20548;-71
2022/12/13 09:36:37;;;;;;;88.53;32.77;;;-6.00;20.50;;;;;;5031787;28;20421;-70
2022/12/13 09:39:03;;;;;;;91.43;42.03;;;-6.00;20.30;;;;;;5046515;28;20206;-70
2022/12/13 09:41:31;;;;;;;89.88;36.28;;;-5.90;20.30;;;;;;5046578;28;20190;-69
2022/12/13 09:44:03;;;;;;;98.53;58.47;;;-5.80;19.70;;;;;;5031267;28;20648;-70
2022/12/13 09:46:33;;;;;;;94.95;32.38;;;-5.80;19.90;;;;;;5031284;28;20222;-69
2022/12/13 09:49:02;;;;;;;87.10;31.60;;;-5.70;19.90;;;;;;5034943;28;20286;-69
2022/12/13 09:51:30;;;;;;;89.53;49.90;;;-5.60;19.80;;;;;;5034924;28;20197;-70
2022/12/13 09:53:55;;;;;;;87.70;40.55;;;-5.60;19.20;;;;;;5034812;28;20221;-69
2022/12/13 09:56:22;;;;;;;87.53;45.70;;;-5.60;19.60;;;;;;5050432;28;20183;-72
2022/12/13 09:58:51;;;;;;;82.65;34.42;;;-5.40;19.80;;;;;;5050307;28;20195;-69
2022/12/13 10:01:17;;;;;;;89.47;35.50;;;-5.30;19.00;;;;;;5034921;28;20627;-67
2022/12/13 10:03:49;;;;;;;120.90;83.03;;;-5.10;19.10;;;;;;5036013;28;20195;-68
2022/12/13 10:06:19;;;;;;;87.32;41.38;;;-5.10;18.70;;;;;;5034624;28;20413;-67
2022/12/13 10:08:56;;;;;;;98.97;49.83;;;;;;;;;;5046872;28;20711;-71
2022/12/13 10:11:22;;;;;;;89.13;40.47;;;-5.00;18.50;;;;;;5050902;28;20189;-70
2022/12/13 10:13:57;;;;;;;96.97;47.10;;;-4.90;19.10;;;;;;5069244;28;20556;-72
2022/12/13 10:16:34;;;;;;;93.22;44.47;;;-4.90;18.60;;;;;;5068844;28;20196;-72
2022/12/13 10:19:40;;;;;;;122.78;86.90;;;-4.90;18.60;;;;;;5069779;28;20281;-71
2022/12/13 10:22:11;;;;;;;115.30;83.40;;;-4.90;18.00;;;;;;5068613;28;20185;-72
2022/12/13 10:25:03;;;;;;;86.05;36.15;;;-4.70;18.90;;;;;;5069149;28;20193;-69
2022/12/13 10:27:52;;;;;;;104.28;60.15;;;-4.70;18.90;;;;;;5070105;28;20190;-72
2022/12/13 10:30:23;;;;;;;89.72;34.97;;;-4.50;18.20;;;;;;5070540;28;20217;-72
2022/12/13 10:32:56;;;;;;;93.50;43.40;;;-4.30;18.30;;;;;;5070430;28;20182;-72
2022/12/13 10:35:26;;;;;;;84.57;36.53;;;-4.20;18.40;;;;;;5069965;28;20177;-71
2022/12/13 10:37:54;;;;;;;83.22;37.75;;;-4.10;17.90;;;;;;5068433;28;20577;-71
2022/12/13 10:40:47;;;;;;;92.05;43.17;;;-3.90;18.10;;;;;;5068389;28;20326;-71
2022/12/13 10:43:20;;;;;;;89.68;42.00;;;-3.70;16.70;;;;;;5043802;28;20285;-72
2022/12/13 10:46:00;;;;;;;92.55;42.50;;;-3.70;16.70;;;;;;5048942;28;20174;-72
2022/12/13 10:48:50;;;;;;;87.82;43.22;;;-3.70;16.80;;;;;;5042282;28;20262;-73
2022/12/13 10:51:19;;;;;;;86.80;42.33;;;-3.60;17.10;;;;;;5032558;28;20191;-69
2022/12/13 10:53:56;;;;;;;88.13;43.17;;;-3.40;17.10;;;;;;5030353;28;20623;-72
2022/12/13 10:56:31;;;;;;;86.53;42.42;;;-3.30;16.10;;;;;;5028955;28;20594;-72
2022/12/13 10:59:23;;;;;;;94.60;49.53;;;-3.10;15.40;;;;;;5041935;28;20207;-72
2022/12/13 11:01:49;;;;;;;90.75;34.83;;;-3.00;15.40;;;;;;5039395;28;20545;-72
2022/12/13 11:04:33;;;;;;;87.80;40.70;;;-2.80;15.20;;;;;;5030176;28;20185;-72
2022/12/13 11:07:20;;;;;;;87.28;33.90;;;-2.70;15.20;;;;;;5032219;28;20606;-71
2022/12/13 11:09:46;;;;;;;91.32;51.22;;;-2.60;15.30;;;;;;5040563;28;20572;-73
2022/12/13 11:12:19;;;;;;;87.30;37.87;;;-2.60;14.00;;;;;;5059662;28;20182;-71
2022/12/13 11:15:01;;;;;;;85.82;42.58;;;-2.40;14.50;;;;;;5055188;28;20180;-70
2022/12/13 11:17:30;;;;;;;88.13;48.08;;;-2.40;14.20;;;;;;5045727;28;20219;-71
2022/12/13 11:19:59;;;;;;;87.68;41.67;;;-2.30;14.00;;;;;;5068441;28;20238;-71
2022/12/13 11:22:28;;;;;;;84.93;41.33;;;-2.30;14.00;;;;;;5070249;28;20925;-69
2022/12/13 11:25:01;;;;;;;94.93;60.38;;;-2.30;14.10;;;;;;5069173;28;20641;-71
2022/12/13 11:27:58;;;;;;;88.35;50.10;;;-2.10;12.80;;;;;;5068986;28;20645;-73
2022/12/13 11:30:29;;;;;;;84.57;40.47;;;-2.10;13.30;;;;;;5041312;22;1061621;-70
2022/12/13 11:33:18;;;;;;;87.28;41.88;;;-2.10;13.10;;;;;;5050608;28;20415;-69
2022/12/13 11:36:07;;;;;;;93.32;46.70;;;-2.00;13.10;;;;;;5050507;28;20575;-69
2022/12/13 11:38:51;;;;;;;94.72;53.20;;;-1.90;13.00;;;;;;5062460;28;20196;-70
2022/12/13 11:41:29;;;;;;;85.20;41.15;;;-1.80;12.50;;;;;;5076366;28;20288;-71
2022/12/13 11:44:00;;;;;;;92.85;40.08;;;-1.60;12.30;;;;;;5076772;28;20270;-69
2022/12/13 11:46:37;;;;;;;97.57;63.55;;;-1.50;11.80;;;;;;5048438;28;20182;-70
2022/12/13 11:49:10;;;;;;;88.32;48.50;;;-1.50;11.80;;;;;;5038394;28;20203;-69
2022/12/13 11:51:43;;;;;;;95.10;57.33;;;-1.50;11.70;;;;;;5036952;28;20178;-69
2022/12/13 11:54:18;;;;;;;91.65;48.45;;;-1.50;11.70;;;;;;5039506;28;20314;-69
2022/12/13 11:56:46;;;;;;;93.95;55.53;;;-1.50;11.80;;;;;;5039339;28;20197;-70
2022/12/13 11:59:41;;;;;;;90.07;53.50;;;-1.70;11.60;;;;;;5038839;28;20288;-70
2022/12/13 12:02:32;;;;;;;87.72;44.22;;;-1.70;11.60;;;;;;5039614;28;20181;-70
2022/12/13 12:05:04;;;;;;;89.85;51.47;;;-1.70;11.60;;;;;;5039551;28;20175;-69
2022/12/13 12:07:29;;;;;;;91.85;54.83;;;-1.60;12.00;;;;;;5039846;28;20268;-69
2022/12/13 12:10:03;;;;;;;218.83;199.40;;;-1.50;11.70;;;;;;5039415;28;20235;-67
2022/12/13 12:12:31;;;;;;;87.05;51.22;;;-1.50;11.70;;;;;;5039516;28;20188;-68
2022/12/13 12:15:25;;;;;;;85.97;51.55;;;-1.40;11.50;;;;;;5039835;28;20209;-68
2022/12/13 12:17:51;;;;;;;85.75;42.63;;;-1.30;11.30;;;;;;5039118;28;20166;-67
2022/12/13 12:20:31;;;;;;;103.27;79.70;;;-1.20;11.10;;;;;;5038576;28;20218;-68
2022/12/13 12:23:17;;;;;;;111.90;87.65;;;-1.10;10.40;;;;;;5039574;28;20241;-69
2022/12/13 12:26:15;;;;;;;88.40;52.42;;;-1.30;10.10;;;;;;5040276;28;20169;-70
2022/12/13 12:29:05;;;;;;;97.43;72.90;;;-1.30;10.70;;;;;;5038826;28;20571;-70
2022/12/13 12:32:08;;;;;;;110.45;87.60;;;-1.20;10.60;;;;;;5039386;28;20174;-70
2022/12/13 12:34:54;;;;;;;84.07;45.20;;;-1.20;10.20;;;;;;5029394;28;20210;-69
2022/12/13 12:37:55;;;;;;;82.70;39.55;;;-1.40;10.00;;;;;;5039682;28;20228;-69
2022/12/13 12:40:31;;;;;;;91.18;57.50;;;-1.30;10.40;;;;;;5039651;28;20197;-69
2022/12/13 12:43:12;;;;;;;88.07;69.30;;;-1.10;10.00;;;;;;5039070;28;20182;-70
2022/12/13 12:46:05;;;;;;;86.95;45.08;;;-1.10;9.60;;;;;;5039495;28;20174;-69
2022/12/13 12:48:55;;;;;;;82.65;37.75;;;-1.20;9.90;;;;;;5039173;28;20179;-69